Ridgetop, Tennessee
Current Conditions -  °F | °C
As of 2:15 PM on Monday 24 Nov 2014 (Local Time) from KM91 Reporting Station
Clear Clear  
Wind Chill: 55°   Ceiling: Unl
Heat Index: 55°   Visibility: 10mi
Dew Point: 37°   Wind: 18mph
Humidity: 51%   Direction: 260°W
Pressure: 29.8"   Gusts: NA
Location:  36.4°N, 86.78°W
Report Text: KM91 242015Z AUTO 26016KT 10SM CLR 13/03 A2980 RMK
Loading
Personal Weather Stations






























Interactive Weather Map New forecast layout! Learn more

10-Day Weather Forecast

Advertisements
Track Severe Weather on mobile